sensor_id;sensor_type;location;lat;lon;timestamp;P1;durP1;ratioP1;P2;durP2;ratioP2
21301;SDS011;10810;48.270;9.996;2023-03-01T00:01:29;14.77;;;5.17;;
21301;SDS011;10810;48.270;9.996;2023-03-01T00:03:56;18.70;;;6.23;;
21301;SDS011;10810;48.270;9.996;2023-03-01T00:06:26;21.87;;;6.20;;
21301;SDS011;10810;48.270;9.996;2023-03-01T00:08:53;16.20;;;6.20;;
21301;SDS011;10810;48.270;9.996;2023-03-01T00:11:26;16.07;;;5.43;;
21301;SDS011;10810;48.270;9.996;2023-03-01T00:13:57;16.57;;;5.63;;
21301;SDS011;10810;48.270;9.996;2023-03-01T00:16:37;14.90;;;5.27;;
21301;SDS011;10810;48.270;9.996;2023-03-01T00:19:06;15.87;;;5.47;;
21301;SDS011;10810;48.270;9.996;2023-03-01T00:21:38;15.73;;;5.43;;
21301;SDS011;10810;48.270;9.996;2023-03-01T00:24:05;16.83;;;6.03;;
21301;SDS011;10810;48.270;9.996;2023-03-01T00:26:32;14.63;;;5.10;;
21301;SDS011;10810;48.270;9.996;2023-03-01T00:28:59;13.43;;;5.00;;
21301;SDS011;10810;48.270;9.996;2023-03-01T00:31:27;14.20;;;5.70;;
21301;SDS011;10810;48.270;9.996;2023-03-01T00:33:56;14.07;;;5.70;;
21301;SDS011;10810;48.270;9.996;2023-03-01T00:36:28;18.57;;;5.93;;
21301;SDS011;10810;48.270;9.996;2023-03-01T00:39:00;23.57;;;6.23;;
21301;SDS011;10810;48.270;9.996;2023-03-01T00:41:28;18.73;;;6.27;;
21301;SDS011;10810;48.270;9.996;2023-03-01T00:43:55;13.33;;;5.33;;
21301;SDS011;10810;48.270;9.996;2023-03-01T00:46:25;15.10;;;5.90;;
21301;SDS011;10810;48.270;9.996;2023-03-01T00:48:53;18.20;;;5.77;;
21301;SDS011;10810;48.270;9.996;2023-03-01T00:51:20;20.70;;;6.53;;
21301;SDS011;10810;48.270;9.996;2023-03-01T00:53:52;18.27;;;5.73;;
21301;SDS011;10810;48.270;9.996;2023-03-01T00:56:23;16.30;;;5.83;;
21301;SDS011;10810;48.270;9.996;2023-03-01T00:58:50;15.07;;;5.87;;
21301;SDS011;10810;48.270;9.996;2023-03-01T01:01:18;16.47;;;5.67;;
21301;SDS011;10810;48.270;9.996;2023-03-01T01:03:47;16.00;;;5.40;;
21301;SDS011;10810;48.270;9.996;2023-03-01T01:06:16;16.00;;;5.27;;
21301;SDS011;10810;48.270;9.996;2023-03-01T01:08:45;11.40;;;5.00;;
21301;SDS011;10810;48.270;9.996;2023-03-01T01:11:13;16.53;;;6.17;;
21301;SDS011;10810;48.270;9.996;2023-03-01T01:13:43;19.03;;;5.87;;
21301;SDS011;10810;48.270;9.996;2023-03-01T01:16:12;17.90;;;6.13;;
21301;SDS011;10810;48.270;9.996;2023-03-01T01:18:39;17.67;;;5.80;;
21301;SDS011;10810;48.270;9.996;2023-03-01T01:21:08;12.20;;;5.17;;
21301;SDS011;10810;48.270;9.996;2023-03-01T01:23:36;20.23;;;6.30;;
21301;SDS011;10810;48.270;9.996;2023-03-01T01:26:04;21.47;;;6.63;;
21301;SDS011;10810;48.270;9.996;2023-03-01T01:28:31;16.60;;;6.00;;
21301;SDS011;10810;48.270;9.996;2023-03-01T01:31:02;16.33;;;6.17;;
21301;SDS011;10810;48.270;9.996;2023-03-01T01:33:35;16.47;;;6.47;;
21301;SDS011;10810;48.270;9.996;2023-03-01T01:36:03;17.63;;;5.70;;
21301;SDS011;10810;48.270;9.996;2023-03-01T01:38:34;17.07;;;6.00;;
21301;SDS011;10810;48.270;9.996;2023-03-01T01:41:02;19.23;;;6.93;;
21301;SDS011;10810;48.270;9.996;2023-03-01T01:43:32;14.40;;;5.93;;
21301;SDS011;10810;48.270;9.996;2023-03-01T01:46:05;17.93;;;6.40;;
21301;SDS011;10810;48.270;9.996;2023-03-01T01:48:44;19.23;;;6.27;;
21301;SDS011;10810;48.270;9.996;2023-03-01T01:51:15;18.00;;;6.60;;
21301;SDS011;10810;48.270;9.996;2023-03-01T01:53:46;21.13;;;6.73;;
21301;SDS011;10810;48.270;9.996;2023-03-01T01:56:17;21.93;;;6.53;;
21301;SDS011;10810;48.270;9.996;2023-03-01T01:58:46;20.87;;;6.50;;
21301;SDS011;10810;48.270;9.996;2023-03-01T02:01:16;18.27;;;6.63;;
21301;SDS011;10810;48.270;9.996;2023-03-01T02:03:43;20.40;;;5.03;;
21301;SDS011;10810;48.270;9.996;2023-03-01T02:06:13;18.03;;;5.47;;
21301;SDS011;10810;48.270;9.996;2023-03-01T02:08:45;13.90;;;5.43;;
21301;SDS011;10810;48.270;9.996;2023-03-01T02:11:14;20.03;;;5.70;;
21301;SDS011;10810;48.270;9.996;2023-03-01T02:13:44;18.80;;;5.90;;
21301;SDS011;10810;48.270;9.996;2023-03-01T02:16:15;19.63;;;6.40;;
21301;SDS011;10810;48.270;9.996;2023-03-01T02:18:43;22.60;;;6.13;;
21301;SDS011;10810;48.270;9.996;2023-03-01T02:21:14;15.63;;;5.63;;
21301;SDS011;10810;48.270;9.996;2023-03-01T02:23:50;16.47;;;6.40;;
21301;SDS011;10810;48.270;9.996;2023-03-01T02:26:19;20.33;;;6.00;;
21301;SDS011;10810;48.270;9.996;2023-03-01T02:28:53;21.23;;;6.63;;
21301;SDS011;10810;48.270;9.996;2023-03-01T02:31:20;19.87;;;6.60;;
21301;SDS011;10810;48.270;9.996;2023-03-01T02:34:05;19.17;;;5.67;;
21301;SDS011;10810;48.270;9.996;2023-03-01T02:36:35;14.10;;;6.10;;
21301;SDS011;10810;48.270;9.996;2023-03-01T02:39:04;20.13;;;6.70;;
21301;SDS011;10810;48.270;9.996;2023-03-01T02:41:39;21.40;;;6.13;;
21301;SDS011;10810;48.270;9.996;2023-03-01T02:44:10;20.90;;;5.60;;
21301;SDS011;10810;48.270;9.996;2023-03-01T02:46:42;16.57;;;5.93;;
21301;SDS011;10810;48.270;9.996;2023-03-01T02:49:18;19.87;;;5.70;;
21301;SDS011;10810;48.270;9.996;2023-03-01T02:51:52;17.07;;;6.10;;
21301;SDS011;10810;48.270;9.996;2023-03-01T02:54:33;19.60;;;6.17;;
21301;SDS011;10810;48.270;9.996;2023-03-01T02:57:06;18.90;;;6.33;;
21301;SDS011;10810;48.270;9.996;2023-03-01T02:59:38;19.47;;;6.57;;
21301;SDS011;10810;48.270;9.996;2023-03-01T03:02:06;16.87;;;6.47;;
21301;SDS011;10810;48.270;9.996;2023-03-01T03:04:33;20.97;;;6.57;;
21301;SDS011;10810;48.270;9.996;2023-03-01T03:07:00;25.43;;;7.10;;
21301;SDS011;10810;48.270;9.996;2023-03-01T03:09:27;21.50;;;7.13;;
21301;SDS011;10810;48.270;9.996;2023-03-01T03:11:54;23.47;;;6.93;;
21301;SDS011;10810;48.270;9.996;2023-03-01T03:14:21;22.57;;;8.07;;
21301;SDS011;10810;48.270;9.996;2023-03-01T03:16:50;18.53;;;6.47;;
21301;SDS011;10810;48.270;9.996;2023-03-01T03:19:18;25.77;;;8.00;;
21301;SDS011;10810;48.270;9.996;2023-03-01T03:21:46;21.43;;;6.57;;
21301;SDS011;10810;48.270;9.996;2023-03-01T03:24:14;18.90;;;6.93;;
21301;SDS011;10810;48.270;9.996;2023-03-01T03:26:42;23.03;;;7.30;;
21301;SDS011;10810;48.270;9.996;2023-03-01T03:29:09;21.83;;;6.67;;
21301;SDS011;10810;48.270;9.996;2023-03-01T03:31:38;20.27;;;7.50;;
21301;SDS011;10810;48.270;9.996;2023-03-01T03:34:06;19.50;;;6.93;;
21301;SDS011;10810;48.270;9.996;2023-03-01T03:36:35;19.13;;;6.57;;
21301;SDS011;10810;48.270;9.996;2023-03-01T03:39:02;21.03;;;7.67;;
21301;SDS011;10810;48.270;9.996;2023-03-01T03:41:30;22.97;;;6.87;;
21301;SDS011;10810;48.270;9.996;2023-03-01T03:44:03;23.67;;;6.70;;
21301;SDS011;10810;48.270;9.996;2023-03-01T03:46:30;17.63;;;6.40;;
21301;SDS011;10810;48.270;9.996;2023-03-01T03:48:57;19.40;;;6.90;;
21301;SDS011;10810;48.270;9.996;2023-03-01T03:51:26;22.77;;;6.63;;
21301;SDS011;10810;48.270;9.996;2023-03-01T03:53:53;19.40;;;7.43;;
21301;SDS011;10810;48.270;9.996;2023-03-01T03:56:20;18.67;;;7.53;;
21301;SDS011;10810;48.270;9.996;2023-03-01T03:58:51;17.50;;;5.57;;
21301;SDS011;10810;48.270;9.996;2023-03-01T04:01:18;18.50;;;7.50;;
21301;SDS011;10810;48.270;9.996;2023-03-01T04:03:45;24.13;;;8.33;;
21301;SDS011;10810;48.270;9.996;2023-03-01T04:06:12;21.30;;;6.80;;
21301;SDS011;10810;48.270;9.996;2023-03-01T04:08:43;17.93;;;6.60;;
21301;SDS011;10810;48.270;9.996;2023-03-01T04:11:10;21.37;;;7.93;;
21301;SDS011;10810;48.270;9.996;2023-03-01T04:13:54;20.77;;;7.37;;
21301;SDS011;10810;48.270;9.996;2023-03-01T04:16:22;14.37;;;5.93;;
21301;SDS011;10810;48.270;9.996;2023-03-01T04:18:50;25.53;;;8.10;;
21301;SDS011;10810;48.270;9.996;2023-03-01T04:21:20;18.40;;;6.53;;
21301;SDS011;10810;48.270;9.996;2023-03-01T04:23:53;23.27;;;7.03;;
21301;SDS011;10810;48.270;9.996;2023-03-01T04:26:24;19.47;;;7.03;;
21301;SDS011;10810;48.270;9.996;2023-03-01T04:28:52;19.17;;;6.40;;
21301;SDS011;10810;48.270;9.996;2023-03-01T04:31:19;22.70;;;6.90;;
21301;SDS011;10810;48.270;9.996;2023-03-01T04:33:47;17.70;;;6.67;;
21301;SDS011;10810;48.270;9.996;2023-03-01T04:36:16;23.07;;;7.33;;
21301;SDS011;10810;48.270;9.996;2023-03-01T04:38:44;17.00;;;6.30;;
21301;SDS011;10810;48.270;9.996;2023-03-01T04:41:14;24.27;;;6.20;;
21301;SDS011;10810;48.270;9.996;2023-03-01T04:43:42;20.97;;;6.80;;
21301;SDS011;10810;48.270;9.996;2023-03-01T04:46:10;21.53;;;6.90;;
21301;SDS011;10810;48.270;9.996;2023-03-01T04:48:40;18.83;;;5.97;;
21301;SDS011;10810;48.270;9.996;2023-03-01T04:51:14;17.30;;;6.40;;
21301;SDS011;10810;48.270;9.996;2023-03-01T04:53:43;24.07;;;7.10;;
21301;SDS011;10810;48.270;9.996;2023-03-01T04:56:12;17.47;;;6.83;;
21301;SDS011;10810;48.270;9.996;2023-03-01T04:58:42;19.70;;;7.63;;
21301;SDS011;10810;48.270;9.996;2023-03-01T05:01:13;20.37;;;7.17;;
21301;SDS011;10810;48.270;9.996;2023-03-01T05:03:41;22.07;;;7.73;;
21301;SDS011;10810;48.270;9.996;2023-03-01T05:06:11;28.43;;;7.77;;
21301;SDS011;10810;48.270;9.996;2023-03-01T05:08:39;18.93;;;6.53;;
21301;SDS011;10810;48.270;9.996;2023-03-01T05:11:14;28.40;;;7.43;;
21301;SDS011;10810;48.270;9.996;2023-03-01T05:13:46;21.50;;;7.57;;
21301;SDS011;10810;48.270;9.996;2023-03-01T05:16:15;22.00;;;7.20;;
21301;SDS011;10810;48.270;9.996;2023-03-01T05:18:44;18.33;;;6.10;;
21301;SDS011;10810;48.270;9.996;2023-03-01T05:21:22;23.57;;;7.37;;
21301;SDS011;10810;48.270;9.996;2023-03-01T05:23:57;21.07;;;6.43;;
21301;SDS011;10810;48.270;9.996;2023-03-01T05:26:52;18.03;;;6.20;;
21301;SDS011;10810;48.270;9.996;2023-03-01T05:29:27;21.27;;;6.67;;
21301;SDS011;10810;48.270;9.996;2023-03-01T05:31:55;24.27;;;7.37;;
21301;SDS011;10810;48.270;9.996;2023-03-01T05:34:24;26.67;;;7.97;;
21301;SDS011;10810;48.270;9.996;2023-03-01T05:36:52;18.17;;;6.33;;
21301;SDS011;10810;48.270;9.996;2023-03-01T05:39:19;21.10;;;7.00;;
21301;SDS011;10810;48.270;9.996;2023-03-01T05:41:47;20.30;;;6.87;;
21301;SDS011;10810;48.270;9.996;2023-03-01T05:44:15;24.23;;;6.60;;
21301;SDS011;10810;48.270;9.996;2023-03-01T05:46:44;22.90;;;7.73;;
21301;SDS011;10810;48.270;9.996;2023-03-01T05:49:11;16.80;;;6.57;;
21301;SDS011;10810;48.270;9.996;2023-03-01T05:51:40;20.70;;;7.03;;
21301;SDS011;10810;48.270;9.996;2023-03-01T05:54:09;20.73;;;7.70;;
21301;SDS011;10810;48.270;9.996;2023-03-01T05:56:36;22.63;;;6.40;;
21301;SDS011;10810;48.270;9.996;2023-03-01T05:59:04;21.40;;;6.80;;
21301;SDS011;10810;48.270;9.996;2023-03-01T06:01:38;19.40;;;5.43;;
21301;SDS011;10810;48.270;9.996;2023-03-01T06:04:07;27.07;;;7.57;;
21301;SDS011;10810;48.270;9.996;2023-03-01T06:06:36;19.03;;;6.27;;
21301;SDS011;10810;48.270;9.996;2023-03-01T06:09:04;19.03;;;7.03;;
21301;SDS011;10810;48.270;9.996;2023-03-01T06:11:33;21.43;;;6.83;;
21301;SDS011;10810;48.270;9.996;2023-03-01T06:14:00;14.47;;;5.97;;
21301;SDS011;10810;48.270;9.996;2023-03-01T06:16:27;20.77;;;7.17;;
21301;SDS011;10810;48.270;9.996;2023-03-01T06:18:54;15.53;;;5.83;;
21301;SDS011;10810;48.270;9.996;2023-03-01T06:21:23;15.20;;;6.50;;
21301;SDS011;10810;48.270;9.996;2023-03-01T06:23:55;20.67;;;6.93;;
21301;SDS011;10810;48.270;9.996;2023-03-01T06:26:22;15.60;;;5.90;;
21301;SDS011;10810;48.270;9.996;2023-03-01T06:28:49;25.03;;;7.60;;
21301;SDS011;10810;48.270;9.996;2023-03-01T06:31:17;22.07;;;6.87;;
21301;SDS011;10810;48.270;9.996;2023-03-01T06:33:45;18.80;;;6.77;;
21301;SDS011;10810;48.270;9.996;2023-03-01T06:36:12;20.83;;;6.27;;
21301;SDS011;10810;48.270;9.996;2023-03-01T06:38:40;15.07;;;5.77;;
21301;SDS011;10810;48.270;9.996;2023-03-01T06:41:08;25.50;;;6.63;;
21301;SDS011;10810;48.270;9.996;2023-03-01T06:43:35;16.87;;;6.83;;
21301;SDS011;10810;48.270;9.996;2023-03-01T06:46:03;21.47;;;6.00;;
21301;SDS011;10810;48.270;9.996;2023-03-01T06:48:31;18.93;;;7.10;;
21301;SDS011;10810;48.270;9.996;2023-03-01T06:50:59;12.57;;;5.53;;
21301;SDS011;10810;48.270;9.996;2023-03-01T06:53:26;16.60;;;6.30;;
21301;SDS011;10810;48.270;9.996;2023-03-01T06:55:55;21.60;;;6.97;;
21301;SDS011;10810;48.270;9.996;2023-03-01T06:58:22;22.53;;;7.00;;
21301;SDS011;10810;48.270;9.996;2023-03-01T07:00:50;26.80;;;7.03;;
21301;SDS011;10810;48.270;9.996;2023-03-01T07:03:17;17.03;;;6.50;;
21301;SDS011;10810;48.270;9.996;2023-03-01T07:05:44;19.93;;;6.83;;
21301;SDS011;10810;48.270;9.996;2023-03-01T07:08:11;17.37;;;7.07;;
21301;SDS011;10810;48.270;9.996;2023-03-01T07:10:38;16.80;;;6.77;;
21301;SDS011;10810;48.270;9.996;2023-03-01T07:13:06;15.97;;;6.10;;
21301;SDS011;10810;48.270;9.996;2023-03-01T07:15:34;17.17;;;6.47;;
21301;SDS011;10810;48.270;9.996;2023-03-01T07:18:01;19.10;;;6.67;;
21301;SDS011;10810;48.270;9.996;2023-03-01T07:20:28;24.57;;;7.60;;
21301;SDS011;10810;48.270;9.996;2023-03-01T07:22:55;14.73;;;6.40;;
21301;SDS011;10810;48.270;9.996;2023-03-01T07:25:23;22.73;;;8.43;;
21301;SDS011;10810;48.270;9.996;2023-03-01T07:28:12;16.60;;;6.33;;
21301;SDS011;10810;48.270;9.996;2023-03-01T07:30:43;19.80;;;6.47;;
21301;SDS011;10810;48.270;9.996;2023-03-01T07:33:16;21.20;;;6.43;;
21301;SDS011;10810;48.270;9.996;2023-03-01T07:35:43;23.60;;;7.57;;
21301;SDS011;10810;48.270;9.996;2023-03-01T07:38:10;19.77;;;6.97;;
21301;SDS011;10810;48.270;9.996;2023-03-01T07:40:37;19.13;;;6.73;;
21301;SDS011;10810;48.270;9.996;2023-03-01T07:43:10;18.73;;;6.53;;
21301;SDS011;10810;48.270;9.996;2023-03-01T07:48:38;17.87;;;7.17;;
21301;SDS011;10810;48.270;9.996;2023-03-01T07:51:06;20.90;;;6.43;;
21301;SDS011;10810;48.270;9.996;2023-03-01T07:53:33;25.20;;;6.80;;
21301;SDS011;10810;48.270;9.996;2023-03-01T07:56:10;24.73;;;8.40;;
21301;SDS011;10810;48.270;9.996;2023-03-01T07:58:39;23.20;;;8.00;;
21301;SDS011;10810;48.270;9.996;2023-03-01T08:01:11;30.13;;;8.00;;
21301;SDS011;10810;48.270;9.996;2023-03-01T08:03:40;22.77;;;8.27;;
21301;SDS011;10810;48.270;9.996;2023-03-01T08:06:10;18.20;;;7.10;;
21301;SDS011;10810;48.270;9.996;2023-03-01T08:08:38;20.13;;;7.60;;
21301;SDS011;10810;48.270;9.996;2023-03-01T08:11:36;22.73;;;8.33;;
21301;SDS011;10810;48.270;9.996;2023-03-01T08:14:07;21.63;;;6.80;;
21301;SDS011;10810;48.270;9.996;2023-03-01T08:23:10;16.93;;;6.60;;
21301;SDS011;10810;48.270;9.996;2023-03-01T08:25:37;21.77;;;8.27;;
21301;SDS011;10810;48.270;9.996;2023-03-01T08:28:05;19.77;;;6.30;;
21301;SDS011;10810;48.270;9.996;2023-03-01T08:30:52;21.57;;;7.20;;
21301;SDS011;10810;48.270;9.996;2023-03-01T08:33:21;23.23;;;7.60;;
21301;SDS011;10810;48.270;9.996;2023-03-01T08:36:09;16.67;;;6.77;;
21301;SDS011;10810;48.270;9.996;2023-03-01T08:38:39;19.20;;;6.77;;
21301;SDS011;10810;48.270;9.996;2023-03-01T08:41:06;20.23;;;6.87;;
21301;SDS011;10810;48.270;9.996;2023-03-01T08:43:35;23.10;;;6.67;;
21301;SDS011;10810;48.270;9.996;2023-03-01T08:46:08;19.17;;;7.53;;
21301;SDS011;10810;48.270;9.996;2023-03-01T08:48:36;21.17;;;7.30;;
21301;SDS011;10810;48.270;9.996;2023-03-01T08:51:07;20.03;;;7.23;;
21301;SDS011;10810;48.270;9.996;2023-03-01T08:53:37;17.37;;;6.57;;
21301;SDS011;10810;48.270;9.996;2023-03-01T08:56:13;19.57;;;7.13;;
21301;SDS011;10810;48.270;9.996;2023-03-01T08:58:43;20.87;;;6.87;;
21301;SDS011;10810;48.270;9.996;2023-03-01T09:01:14;23.70;;;7.17;;
21301;SDS011;10810;48.270;9.996;2023-03-01T09:03:42;18.33;;;6.53;;
21301;SDS011;10810;48.270;9.996;2023-03-01T09:06:10;20.43;;;7.07;;
21301;SDS011;10810;48.270;9.996;2023-03-01T09:08:39;21.53;;;6.80;;
21301;SDS011;10810;48.270;9.996;2023-03-01T09:11:09;25.53;;;7.53;;
21301;SDS011;10810;48.270;9.996;2023-03-01T09:13:38;20.07;;;7.13;;
21301;SDS011;10810;48.270;9.996;2023-03-01T09:16:06;24.77;;;7.43;;
21301;SDS011;10810;48.270;9.996;2023-03-01T09:18:35;24.63;;;7.70;;
21301;SDS011;10810;48.270;9.996;2023-03-01T09:21:02;21.23;;;6.93;;
21301;SDS011;10810;48.270;9.996;2023-03-01T09:23:32;16.20;;;6.13;;
21301;SDS011;10810;48.270;9.996;2023-03-01T09:25:59;26.00;;;7.70;;
21301;SDS011;10810;48.270;9.996;2023-03-01T09:28:30;20.90;;;7.10;;
21301;SDS011;10810;48.270;9.996;2023-03-01T09:30:57;19.07;;;6.47;;
21301;SDS011;10810;48.270;9.996;2023-03-01T09:33:25;17.03;;;6.50;;
21301;SDS011;10810;48.270;9.996;2023-03-01T09:35:55;19.10;;;6.97;;
21301;SDS011;10810;48.270;9.996;2023-03-01T09:38:23;20.60;;;6.33;;
21301;SDS011;10810;48.270;9.996;2023-03-01T09:40:53;26.37;;;8.03;;
21301;SDS011;10810;48.270;9.996;2023-03-01T09:43:23;19.77;;;7.07;;
21301;SDS011;10810;48.270;9.996;2023-03-01T09:46:01;21.40;;;7.27;;
21301;SDS011;10810;48.270;9.996;2023-03-01T09:48:38;21.50;;;6.57;;
21301;SDS011;10810;48.270;9.996;2023-03-01T09:51:27;24.67;;;8.07;;
21301;SDS011;10810;48.270;9.996;2023-03-01T09:54:00;22.93;;;6.83;;
21301;SDS011;10810;48.270;9.996;2023-03-01T09:56:30;23.40;;;7.50;;
21301;SDS011;10810;48.270;9.996;2023-03-01T09:59:06;22.83;;;6.97;;
21301;SDS011;10810;48.270;9.996;2023-03-01T10:01:52;24.30;;;7.73;;
21301;SDS011;10810;48.270;9.996;2023-03-01T10:04:27;20.80;;;7.33;;
21301;SDS011;10810;48.270;9.996;2023-03-01T10:07:16;21.30;;;7.00;;
21301;SDS011;10810;48.270;9.996;2023-03-01T10:09:57;22.20;;;6.90;;
21301;SDS011;10810;48.270;9.996;2023-03-01T10:12:31;23.90;;;7.97;;
21301;SDS011;10810;48.270;9.996;2023-03-01T10:15:03;20.03;;;6.27;;
21301;SDS011;10810;48.270;9.996;2023-03-01T10:17:39;23.33;;;7.17;;
21301;SDS011;10810;48.270;9.996;2023-03-01T10:20:18;26.87;;;7.63;;
21301;SDS011;10810;48.270;9.996;2023-03-01T10:22:52;25.10;;;8.20;;
21301;SDS011;10810;48.270;9.996;2023-03-01T10:25:25;23.03;;;7.17;;
21301;SDS011;10810;48.270;9.996;2023-03-01T10:28:13;22.83;;;7.53;;
21301;SDS011;10810;48.270;9.996;2023-03-01T10:30:44;23.03;;;7.20;;
21301;SDS011;10810;48.270;9.996;2023-03-01T10:33:15;24.70;;;8.90;;
21301;SDS011;10810;48.270;9.996;2023-03-01T10:35:50;24.77;;;7.20;;
21301;SDS011;10810;48.270;9.996;2023-03-01T10:38:20;24.53;;;7.30;;
21301;SDS011;10810;48.270;9.996;2023-03-01T10:41:04;25.23;;;7.70;;
21301;SDS011;10810;48.270;9.996;2023-03-01T10:43:40;22.47;;;7.43;;
21301;SDS011;10810;48.270;9.996;2023-03-01T10:46:21;26.20;;;8.30;;
21301;SDS011;10810;48.270;9.996;2023-03-01T10:51:38;23.97;;;6.90;;
21301;SDS011;10810;48.270;9.996;2023-03-01T10:54:06;26.23;;;8.33;;
21301;SDS011;10810;48.270;9.996;2023-03-01T10:56:46;18.87;;;6.47;;
21301;SDS011;10810;48.270;9.996;2023-03-01T11:02:03;24.23;;;8.13;;
21301;SDS011;10810;48.270;9.996;2023-03-01T11:04:46;26.27;;;7.73;;
21301;SDS011;10810;48.270;9.996;2023-03-01T11:07:23;27.83;;;7.97;;
21301;SDS011;10810;48.270;9.996;2023-03-01T11:09:50;23.80;;;8.07;;
21301;SDS011;10810;48.270;9.996;2023-03-01T11:12:27;21.73;;;7.40;;
21301;SDS011;10810;48.270;9.996;2023-03-01T11:15:15;21.00;;;6.97;;
21301;SDS011;10810;48.270;9.996;2023-03-01T11:17:50;19.77;;;6.80;;
21301;SDS011;10810;48.270;9.996;2023-03-01T11:20:26;27.93;;;7.90;;
21301;SDS011;10810;48.270;9.996;2023-03-01T11:23:00;20.63;;;7.50;;
21301;SDS011;10810;48.270;9.996;2023-03-01T11:25:47;24.97;;;7.30;;
21301;SDS011;10810;48.270;9.996;2023-03-01T11:28:24;28.50;;;8.57;;
21301;SDS011;10810;48.270;9.996;2023-03-01T11:31:03;27.67;;;7.70;;
21301;SDS011;10810;48.270;9.996;2023-03-01T11:33:44;20.07;;;7.87;;
21301;SDS011;10810;48.270;9.996;2023-03-01T11:39:34;22.47;;;7.77;;
21301;SDS011;10810;48.270;9.996;2023-03-01T11:42:40;23.30;;;7.97;;
21301;SDS011;10810;48.270;9.996;2023-03-01T11:45:16;28.57;;;9.33;;
21301;SDS011;10810;48.270;9.996;2023-03-01T11:49:24;26.67;;;8.40;;
21301;SDS011;10810;48.270;9.996;2023-03-01T11:51:19;24.60;;;7.33;;
21301;SDS011;10810;48.270;9.996;2023-03-01T11:54:27;21.43;;;7.33;;
21301;SDS011;10810;48.270;9.996;2023-03-01T11:57:34;22.73;;;7.67;;
21301;SDS011;10810;48.270;9.996;2023-03-01T12:00:18;24.47;;;8.40;;
21301;SDS011;10810;48.270;9.996;2023-03-01T12:06:05;19.00;;;7.63;;
21301;SDS011;10810;48.270;9.996;2023-03-01T12:08:51;25.23;;;8.30;;
21301;SDS011;10810;48.270;9.996;2023-03-01T12:11:47;25.20;;;9.00;;
21301;SDS011;10810;48.270;9.996;2023-03-01T12:14:41;20.47;;;7.37;;
21301;SDS011;10810;48.270;9.996;2023-03-01T12:17:20;26.60;;;8.30;;
21301;SDS011;10810;48.270;9.996;2023-03-01T12:20:58;22.87;;;8.47;;
21301;SDS011;10810;48.270;9.996;2023-03-01T12:26:41;24.43;;;7.33;;
21301;SDS011;10810;48.270;9.996;2023-03-01T12:29:33;22.20;;;8.00;;
21301;SDS011;10810;48.270;9.996;2023-03-01T12:32:34;30.47;;;9.13;;
21301;SDS011;10810;48.270;9.996;2023-03-01T12:36:07;25.50;;;8.67;;
21301;SDS011;10810;48.270;9.996;2023-03-01T12:39:13;24.83;;;8.17;;
21301;SDS011;10810;48.270;9.996;2023-03-01T12:41:53;23.37;;;8.00;;
21301;SDS011;10810;48.270;9.996;2023-03-01T12:44:35;26.70;;;9.10;;
21301;SDS011;10810;48.270;9.996;2023-03-01T12:47:14;28.57;;;8.97;;
21301;SDS011;10810;48.270;9.996;2023-03-01T12:49:54;25.40;;;8.53;;
21301;SDS011;10810;48.270;9.996;2023-03-01T12:52:26;28.13;;;8.27;;
21301;SDS011;10810;48.270;9.996;2023-03-01T12:54:59;26.83;;;7.90;;
21301;SDS011;10810;48.270;9.996;2023-03-01T12:57:37;26.47;;;8.93;;
21301;SDS011;10810;48.270;9.996;2023-03-01T13:00:17;23.47;;;8.43;;
21301;SDS011;10810;48.270;9.996;2023-03-01T13:02:53;31.40;;;9.30;;
21301;SDS011;10810;48.270;9.996;2023-03-01T13:05:27;28.00;;;9.03;;
21301;SDS011;10810;48.270;9.996;2023-03-01T13:08:05;25.30;;;8.67;;
21301;SDS011;10810;48.270;9.996;2023-03-01T13:10:39;27.40;;;8.13;;
21301;SDS011;10810;48.270;9.996;2023-03-01T13:13:21;25.87;;;9.50;;
21301;SDS011;10810;48.270;9.996;2023-03-01T13:15:50;25.17;;;7.97;;
21301;SDS011;10810;48.270;9.996;2023-03-01T13:18:27;22.47;;;8.07;;
21301;SDS011;10810;48.270;9.996;2023-03-01T13:20:57;23.57;;;8.53;;
21301;SDS011;10810;48.270;9.996;2023-03-01T13:23:27;33.07;;;8.97;;
21301;SDS011;10810;48.270;9.996;2023-03-01T13:26:04;22.40;;;8.37;;
21301;SDS011;10810;48.270;9.996;2023-03-01T13:28:40;31.40;;;8.93;;
21301;SDS011;10810;48.270;9.996;2023-03-01T13:37:13;25.27;;;8.20;;
21301;SDS011;10810;48.270;9.996;2023-03-01T13:39:46;24.23;;;8.53;;
21301;SDS011;10810;48.270;9.996;2023-03-01T13:42:33;27.47;;;8.97;;
21301;SDS011;10810;48.270;9.996;2023-03-01T13:45:05;26.67;;;8.20;;
21301;SDS011;10810;48.270;9.996;2023-03-01T13:47:57;27.90;;;8.60;;
21301;SDS011;10810;48.270;9.996;2023-03-01T13:50:28;27.97;;;8.80;;
21301;SDS011;10810;48.270;9.996;2023-03-01T13:53:00;28.43;;;8.60;;
21301;SDS011;10810;48.270;9.996;2023-03-01T13:55:34;23.93;;;8.40;;
21301;SDS011;10810;48.270;9.996;2023-03-01T13:58:05;28.83;;;9.13;;
21301;SDS011;10810;48.270;9.996;2023-03-01T14:00:46;28.67;;;8.37;;
21301;SDS011;10810;48.270;9.996;2023-03-01T14:03:14;29.33;;;8.57;;
21301;SDS011;10810;48.270;9.996;2023-03-01T14:05:42;29.87;;;8.87;;
21301;SDS011;10810;48.270;9.996;2023-03-01T14:08:23;25.77;;;8.40;;
21301;SDS011;10810;48.270;9.996;2023-03-01T14:10:57;25.50;;;8.07;;
21301;SDS011;10810;48.270;9.996;2023-03-01T14:13:39;24.50;;;8.50;;
21301;SDS011;10810;48.270;9.996;2023-03-01T14:16:23;22.20;;;8.00;;
21301;SDS011;10810;48.270;9.996;2023-03-01T14:19:00;22.77;;;8.00;;
21301;SDS011;10810;48.270;9.996;2023-03-01T14:21:42;29.30;;;8.87;;
21301;SDS011;10810;48.270;9.996;2023-03-01T14:24:17;37.97;;;8.20;;
21301;SDS011;10810;48.270;9.996;2023-03-01T14:26:46;26.80;;;8.73;;
21301;SDS011;10810;48.270;9.996;2023-03-01T14:29:23;26.80;;;8.33;;
21301;SDS011;10810;48.270;9.996;2023-03-01T14:31:53;23.70;;;7.60;;
21301;SDS011;10810;48.270;9.996;2023-03-01T14:34:20;25.73;;;8.20;;
21301;SDS011;10810;48.270;9.996;2023-03-01T14:36:50;22.67;;;8.33;;
21301;SDS011;10810;48.270;9.996;2023-03-01T14:39:18;23.33;;;7.30;;
21301;SDS011;10810;48.270;9.996;2023-03-01T14:41:51;24.20;;;8.23;;
21301;SDS011;10810;48.270;9.996;2023-03-01T14:44:24;26.33;;;8.73;;
21301;SDS011;10810;48.270;9.996;2023-03-01T14:49:54;26.03;;;7.83;;
21301;SDS011;10810;48.270;9.996;2023-03-01T14:52:30;24.63;;;7.90;;
21301;SDS011;10810;48.270;9.996;2023-03-01T14:55:44;23.77;;;7.47;;
21301;SDS011;10810;48.270;9.996;2023-03-01T14:58:20;23.17;;;6.57;;
21301;SDS011;10810;48.270;9.996;2023-03-01T15:01:53;20.27;;;7.07;;
21301;SDS011;10810;48.270;9.996;2023-03-01T15:04:06;26.17;;;8.60;;
21301;SDS011;10810;48.270;9.996;2023-03-01T15:06:43;22.10;;;7.00;;
21301;SDS011;10810;48.270;9.996;2023-03-01T15:09:17;22.23;;;7.80;;
21301;SDS011;10810;48.270;9.996;2023-03-01T15:11:47;22.77;;;7.47;;
21301;SDS011;10810;48.270;9.996;2023-03-01T15:14:38;20.37;;;7.93;;
21301;SDS011;10810;48.270;9.996;2023-03-01T15:17:22;22.90;;;7.97;;
21301;SDS011;10810;48.270;9.996;2023-03-01T15:20:28;26.80;;;7.93;;
21301;SDS011;10810;48.270;9.996;2023-03-01T15:23:00;32.80;;;10.00;;
21301;SDS011;10810;48.270;9.996;2023-03-01T15:25:32;25.37;;;8.53;;
21301;SDS011;10810;48.270;9.996;2023-03-01T15:28:03;23.87;;;7.67;;
21301;SDS011;10810;48.270;9.996;2023-03-01T15:31:20;22.43;;;7.37;;
21301;SDS011;10810;48.270;9.996;2023-03-01T15:34:24;26.17;;;7.13;;
21301;SDS011;10810;48.270;9.996;2023-03-01T15:37:34;20.40;;;8.07;;
21301;SDS011;10810;48.270;9.996;2023-03-01T15:43:46;23.93;;;7.93;;
21301;SDS011;10810;48.270;9.996;2023-03-01T15:46:26;27.47;;;8.73;;
21301;SDS011;10810;48.270;9.996;2023-03-01T15:48:57;27.73;;;8.10;;